createdAt,value
2022-07-29T00:02:26.615Z,53.69
2022-07-29T00:04:53.845Z,53.70
2022-07-29T00:07:20.583Z,53.99
2022-07-29T00:09:50.835Z,54.06
2022-07-29T00:12:25.095Z,54.03
2022-07-29T00:14:56.854Z,54.28
2022-07-29T00:17:26.636Z,54.30
2022-07-29T00:19:53.797Z,54.51
2022-07-29T00:22:21.491Z,54.56
2022-07-29T00:24:50.270Z,54.21
2022-07-29T00:27:17.748Z,54.99
2022-07-29T00:29:44.442Z,54.94
2022-07-29T00:32:11.064Z,54.93
2022-07-29T00:34:56.689Z,55.10
2022-07-29T00:37:23.467Z,55.35
2022-07-29T00:39:50.364Z,55.46
2022-07-29T00:42:17.676Z,55.22
2022-07-29T00:44:44.413Z,55.93
2022-07-29T00:47:12.620Z,55.90
2022-07-29T00:49:41.341Z,55.58
2022-07-29T00:52:09.787Z,55.34
2022-07-29T00:54:44.216Z,55.39
2022-07-29T00:57:12.461Z,55.51
2022-07-29T00:59:39.276Z,55.96
2022-07-29T01:02:06.088Z,55.54
2022-07-29T01:04:33.387Z,55.75
2022-07-29T01:07:03.138Z,56.13
2022-07-29T01:09:35.993Z,56.86
2022-07-29T01:12:20.090Z,57.45
2022-07-29T01:14:49.112Z,57.57
2022-07-29T01:17:24.658Z,57.71
2022-07-29T01:20:07.006Z,57.50
2022-07-29T01:23:12.167Z,57.40
2022-07-29T01:26:16.443Z,57.40
2022-07-29T01:29:07.407Z,57.57
2022-07-29T01:31:59.830Z,57.47
2022-07-29T01:34:33.792Z,57.69
2022-07-29T01:37:16.455Z,57.84
2022-07-29T01:39:44.357Z,57.89
2022-07-29T01:42:21.988Z,57.81
2022-07-29T01:45:03.171Z,57.37
2022-07-29T01:47:38.177Z,57.57
2022-07-29T01:50:09.773Z,57.57
2022-07-29T01:52:44.821Z,57.83
2022-07-29T01:55:16.004Z,57.79
2022-07-29T01:57:45.436Z,57.52
2022-07-29T02:00:13.383Z,57.85
2022-07-29T02:02:43.613Z,57.69
2022-07-29T02:05:13.676Z,57.77
2022-07-29T02:07:42.801Z,57.88
2022-07-29T02:10:11.679Z,58.25
2022-07-29T02:12:40.097Z,58.43
2022-07-29T02:15:08.300Z,58.57
2022-07-29T02:17:44.966Z,58.71
2022-07-29T02:20:13.311Z,59.08
2022-07-29T02:22:42.105Z,59.94
2022-07-29T02:25:14.113Z,60.54
2022-07-29T02:27:43.430Z,61.14
2022-07-29T02:30:11.795Z,61.45
2022-07-29T02:32:40.853Z,61.55
2022-07-29T02:35:10.403Z,61.47
2022-07-29T02:37:38.229Z,61.62
2022-07-29T02:40:07.152Z,61.54
2022-07-29T02:42:37.025Z,61.41
2022-07-29T02:45:04.572Z,61.17
2022-07-29T02:47:44.808Z,61.14
2022-07-29T02:50:18.436Z,60.66
2022-07-29T02:52:51.408Z,60.32
2022-07-29T02:55:30.907Z,60.55
2022-07-29T02:58:09.492Z,61.25
2022-07-29T03:00:38.716Z,60.98
2022-07-29T03:03:12.139Z,61.13
2022-07-29T03:05:39.046Z,60.52
2022-07-29T03:08:08.169Z,59.78
2022-07-29T03:10:35.733Z,60.06
2022-07-29T03:13:02.845Z,59.81
2022-07-29T03:15:30.362Z,59.54
2022-07-29T03:17:58.012Z,59.28
2022-07-29T03:20:26.752Z,59.35
2022-07-29T03:22:53.405Z,59.76
2022-07-29T03:25:21.328Z,60.08
2022-07-29T03:27:49.069Z,60.33
2022-07-29T03:30:22.223Z,60.20
2022-07-29T03:32:52.227Z,60.90
2022-07-29T03:35:21.673Z,61.05
2022-07-29T03:37:48.410Z,60.21
2022-07-29T03:40:23.446Z,59.93
2022-07-29T03:42:52.741Z,60.49
2022-07-29T03:45:20.773Z,61.21
2022-07-29T03:47:54.680Z,62.12
2022-07-29T03:50:24.050Z,62.26
2022-07-29T03:52:50.837Z,62.55
2022-07-29T03:55:17.786Z,62.47
2022-07-29T03:57:46.654Z,62.46
2022-07-29T04:00:14.710Z,62.63
2022-07-29T04:02:41.548Z,63.05
2022-07-29T04:05:13.695Z,63.43
2022-07-29T04:07:41.321Z,63.27
2022-07-29T04:10:08.895Z,61.95
2022-07-29T04:12:36.143Z,61.49
2022-07-29T04:15:06.789Z,61.85
2022-07-29T04:17:33.530Z,62.83
2022-07-29T04:20:00.233Z,62.77
2022-07-29T04:22:26.901Z,62.37
2022-07-29T04:24:54.180Z,62.41
2022-07-29T04:27:20.927Z,62.83
2022-07-29T04:29:56.389Z,63.23
2022-07-29T04:32:25.083Z,63.67
2022-07-29T04:34:52.230Z,63.97
2022-07-29T04:37:19.254Z,64.32
2022-07-29T04:39:45.944Z,64.17
2022-07-29T04:42:12.625Z,64.17
2022-07-29T04:44:39.985Z,68.82
2022-07-29T04:47:10.378Z,70.03
2022-07-29T04:49:39.793Z,66.78
2022-07-29T04:52:07.193Z,64.61
2022-07-29T04:54:34.500Z,63.32
2022-07-29T04:57:01.386Z,63.92
2022-07-29T04:59:28.308Z,63.61
2022-07-29T05:01:55.201Z,63.33
2022-07-29T05:04:21.846Z,63.75
2022-07-29T05:06:49.182Z,63.93
2022-07-29T05:09:16.292Z,64.20
2022-07-29T05:11:43.436Z,63.75
2022-07-29T05:14:10.754Z,64.19
2022-07-29T05:16:38.248Z,64.31
2022-07-29T05:19:05.511Z,64.65
2022-07-29T05:21:32.940Z,64.89
2022-07-29T05:23:59.792Z,64.92
2022-07-29T05:26:26.731Z,65.66
2022-07-29T05:28:54.845Z,65.48
2022-07-29T05:31:21.542Z,66.33
2022-07-29T05:33:48.863Z,65.92
2022-07-29T05:36:16.028Z,65.86
2022-07-29T05:38:42.875Z,66.08
2022-07-29T05:41:10.182Z,66.42
2022-07-29T05:43:37.179Z,66.00
2022-07-29T05:46:04.547Z,65.90
2022-07-29T05:48:31.340Z,66.70
2022-07-29T05:50:57.878Z,67.16
2022-07-29T05:53:25.067Z,67.56
2022-07-29T05:55:53.032Z,68.10
2022-07-29T05:58:20.383Z,68.37
2022-07-29T06:00:47.357Z,69.43
2022-07-29T06:03:13.914Z,71.26
2022-07-29T06:05:40.510Z,72.86
2022-07-29T06:08:08.283Z,75.00
2022-07-29T06:10:37.954Z,76.27
2022-07-29T06:13:04.616Z,77.22
2022-07-29T06:15:31.399Z,78.65
2022-07-29T06:17:59.840Z,80.37
2022-07-29T06:20:30.761Z,80.80
2022-07-29T06:22:58.389Z,79.91
2022-07-29T06:25:25.199Z,80.82
2022-07-29T06:27:51.993Z,80.35
2022-07-29T06:30:19.544Z,80.68
2022-07-29T06:32:46.807Z,80.61
2022-07-29T06:35:39.329Z,80.23
2022-07-29T06:38:00.755Z,80.51
2022-07-29T06:40:49.470Z,80.60
2022-07-29T06:43:16.531Z,80.96
2022-07-29T06:45:43.924Z,81.56
2022-07-29T06:48:10.983Z,80.35
2022-07-29T06:50:37.894Z,79.73
2022-07-29T06:53:04.873Z,79.63
2022-07-29T06:55:34.304Z,79.16
2022-07-29T06:58:00.844Z,77.49
2022-07-29T07:00:27.416Z,75.83
2022-07-29T07:02:54.287Z,74.57
2022-07-29T07:05:21.098Z,72.92
2022-07-29T07:07:47.964Z,70.88
2022-07-29T07:10:14.719Z,68.77
2022-07-29T07:12:41.582Z,71.37
2022-07-29T07:15:08.661Z,73.35
2022-07-29T07:17:35.536Z,74.03
2022-07-29T07:20:02.216Z,72.99
2022-07-29T07:22:35.665Z,72.15
2022-07-29T07:25:05.543Z,71.11
2022-07-29T07:27:32.421Z,70.70
2022-07-29T07:29:59.266Z,70.02
2022-07-29T07:32:25.852Z,69.86
2022-07-29T07:34:52.634Z,68.04
2022-07-29T07:37:21.552Z,66.21
2022-07-29T07:39:48.132Z,65.45
2022-07-29T07:42:15.318Z,68.94
2022-07-29T07:45:03.861Z,70.70
2022-07-29T07:47:28.680Z,70.94
2022-07-29T07:49:55.532Z,70.58
2022-07-29T07:52:23.203Z,69.42
2022-07-29T07:54:50.187Z,69.12
2022-07-29T07:57:17.589Z,68.03
2022-07-29T07:59:44.424Z,66.88
2022-07-29T08:02:11.439Z,63.44
2022-07-29T08:04:38.158Z,59.62
2022-07-29T08:07:04.923Z,61.33
2022-07-29T08:09:32.058Z,61.36
2022-07-29T08:11:59.970Z,62.35
2022-07-29T08:14:26.659Z,63.37
2022-07-29T08:16:53.572Z,61.25
2022-07-29T08:19:20.562Z,60.13
2022-07-29T08:21:47.309Z,58.50
2022-07-29T08:24:33.005Z,55.78
2022-07-29T08:27:21.258Z,55.89
2022-07-29T08:29:53.245Z,56.37
2022-07-29T08:32:43.507Z,55.48
2022-07-29T08:35:09.585Z,55.89
2022-07-29T08:37:36.517Z,54.82
2022-07-29T08:40:04.246Z,53.93
2022-07-29T08:42:31.638Z,54.14
2022-07-29T08:44:59.766Z,54.51
2022-07-29T08:47:28.910Z,54.72
2022-07-29T08:49:56.313Z,54.99
2022-07-29T08:52:27.064Z,55.46
2022-07-29T08:54:54.931Z,53.69
2022-07-29T08:57:23.681Z,53.75
2022-07-29T08:59:53.586Z,54.02
2022-07-29T09:02:21.387Z,54.08
2022-07-29T09:04:52.175Z,53.90
2022-07-29T09:07:22.294Z,54.03
2022-07-29T09:09:49.116Z,54.09
2022-07-29T09:12:29.280Z,55.05
2022-07-29T09:14:57.128Z,55.01
2022-07-29T09:17:50.410Z,54.10
2022-07-29T09:20:25.545Z,53.30
2022-07-29T09:22:54.514Z,51.61
2022-07-29T09:25:38.105Z,51.70
2022-07-29T09:28:13.379Z,51.19
2022-07-29T09:30:59.242Z,50.33
2022-07-29T09:33:35.664Z,49.24
2022-07-29T09:36:07.589Z,47.24
2022-07-29T09:38:35.075Z,44.76
2022-07-29T09:41:05.836Z,44.03
2022-07-29T09:43:33.740Z,42.98
2022-07-29T09:46:13.048Z,41.34
2022-07-29T09:48:40.404Z,40.63
2022-07-29T09:51:20.651Z,38.88
2022-07-29T09:53:48.256Z,37.91
2022-07-29T09:56:15.337Z,38.06
2022-07-29T09:58:42.133Z,36.47
2022-07-29T10:01:09.316Z,36.06
2022-07-29T10:03:54.549Z,36.33
2022-07-29T10:06:21.236Z,35.85
2022-07-29T10:08:50.576Z,37.18
2022-07-29T10:11:18.666Z,37.55
2022-07-29T10:13:47.269Z,37.03
2022-07-29T10:16:15.782Z,35.24
2022-07-29T10:18:44.726Z,35.79
2022-07-29T10:21:34.563Z,36.93
2022-07-29T10:24:01.090Z,37.32
2022-07-29T10:26:30.620Z,37.82
2022-07-29T10:28:57.684Z,37.09
2022-07-29T10:31:35.032Z,34.80
2022-07-29T10:34:23.699Z,32.88
2022-07-29T10:37:04.052Z,33.53
2022-07-29T10:40:30.420Z,31.62
2022-07-29T10:43:08.080Z,31.24
2022-07-29T10:45:35.558Z,31.10
2022-07-29T10:48:07.934Z,31.23
2022-07-29T10:50:56.691Z,30.83
2022-07-29T10:53:24.815Z,30.74
2022-07-29T10:55:54.752Z,30.37
2022-07-29T10:58:24.715Z,30.59
2022-07-29T11:00:53.658Z,29.48
2022-07-29T11:03:49.651Z,29.39
2022-07-29T11:06:18.018Z,28.65
2022-07-29T11:09:25.878Z,28.27
2022-07-29T11:12:02.529Z,27.68
2022-07-29T11:15:02.510Z,27.02
2022-07-29T11:17:37.528Z,28.00
2022-07-29T11:20:38.121Z,26.87
2022-07-29T11:23:27.635Z,26.54
2022-07-29T11:26:21.058Z,27.02
2022-07-29T11:28:52.308Z,26.43
2022-07-29T11:31:37.492Z,26.42
2022-07-29T11:34:28.163Z,27.58
2022-07-29T11:37:12.486Z,27.71
2022-07-29T11:39:43.214Z,28.15
2022-07-29T11:42:32.147Z,28.02
2022-07-29T11:45:04.290Z,28.39
2022-07-29T11:47:51.034Z,28.57
2022-07-29T11:50:30.041Z,29.91
2022-07-29T11:52:56.823Z,30.66
2022-07-29T11:55:32.557Z,31.09
2022-07-29T11:58:03.745Z,30.00
2022-07-29T12:00:42.459Z,29.51
2022-07-29T12:03:12.012Z,28.91
2022-07-29T12:05:48.357Z,28.91
2022-07-29T12:08:23.589Z,28.41
2022-07-29T12:10:51.668Z,26.67
2022-07-29T12:13:22.335Z,27.27
2022-07-29T12:16:00.168Z,28.06
2022-07-29T12:18:27.935Z,28.08
2022-07-29T12:21:04.901Z,28.76
2022-07-29T12:23:35.549Z,29.26
2022-07-29T12:26:07.728Z,29.59
2022-07-29T12:28:39.461Z,30.33
2022-07-29T12:31:06.341Z,30.00
2022-07-29T12:33:35.999Z,29.74
2022-07-29T12:36:10.297Z,30.93
2022-07-29T12:38:41.864Z,31.30
2022-07-29T12:41:08.572Z,31.42
2022-07-29T12:43:35.325Z,32.17
2022-07-29T12:46:14.885Z,32.77
2022-07-29T12:48:44.068Z,33.49
2022-07-29T12:51:12.754Z,33.43
2022-07-29T12:53:40.047Z,34.05
2022-07-29T12:56:41.349Z,33.99
2022-07-29T12:59:18.651Z,34.61
2022-07-29T13:01:48.061Z,34.77
2022-07-29T13:04:29.788Z,35.48
2022-07-29T13:07:15.443Z,35.74
2022-07-29T13:09:49.499Z,36.54
2022-07-29T13:12:16.186Z,36.89
2022-07-29T13:14:48.079Z,36.50
2022-07-29T13:17:21.776Z,36.93
2022-07-29T13:19:52.666Z,36.38
2022-07-29T13:22:22.068Z,36.22
2022-07-29T13:24:59.785Z,35.28
2022-07-29T13:27:28.562Z,35.35
2022-07-29T13:30:00.441Z,34.78
2022-07-29T13:32:29.305Z,34.65
2022-07-29T13:35:01.745Z,34.30
2022-07-29T13:37:35.118Z,34.86
2022-07-29T13:40:04.104Z,34.35
2022-07-29T13:42:31.205Z,32.92
2022-07-29T13:44:58.247Z,34.18
2022-07-29T13:47:32.369Z,34.11
2022-07-29T13:50:01.142Z,34.36
2022-07-29T13:52:28.267Z,34.77
2022-07-29T13:54:54.805Z,34.32
2022-07-29T13:57:21.363Z,34.25
2022-07-29T13:59:52.001Z,34.36
2022-07-29T14:02:21.465Z,34.06
2022-07-29T14:04:56.294Z,33.87
2022-07-29T14:07:23.930Z,33.61
2022-07-29T14:09:51.554Z,34.08
2022-07-29T14:12:18.709Z,34.56
2022-07-29T14:14:47.342Z,33.94
2022-07-29T14:17:14.302Z,34.38
2022-07-29T14:19:41.373Z,33.71
2022-07-29T14:22:12.503Z,33.81
2022-07-29T14:24:39.943Z,34.59
2022-07-29T14:27:10.428Z,33.83
2022-07-29T14:29:38.825Z,34.01
2022-07-29T14:32:11.359Z,34.34
2022-07-29T14:34:39.143Z,34.91
2022-07-29T14:37:07.025Z,34.17
2022-07-29T14:39:38.147Z,33.82
2022-07-29T14:42:10.172Z,33.43
2022-07-29T14:44:39.000Z,32.54
2022-07-29T14:47:08.088Z,31.98
2022-07-29T14:49:36.008Z,31.48
2022-07-29T14:52:03.150Z,31.11
2022-07-29T14:54:29.890Z,31.40
2022-07-29T14:56:58.514Z,32.29
2022-07-29T14:59:27.507Z,32.77
2022-07-29T15:01:54.710Z,32.67
2022-07-29T15:04:22.047Z,31.89
2022-07-29T15:06:49.020Z,32.71
2022-07-29T15:09:15.938Z,32.98
2022-07-29T15:11:42.826Z,31.24
2022-07-29T15:14:15.898Z,32.00
2022-07-29T15:16:43.774Z,31.99
2022-07-29T15:19:13.577Z,31.06
2022-07-29T15:21:41.397Z,30.14
2022-07-29T15:24:15.135Z,31.12
2022-07-29T15:26:43.567Z,31.63
2022-07-29T15:29:10.362Z,30.32
2022-07-29T15:31:37.188Z,30.10
2022-07-29T15:34:06.164Z,29.68
2022-07-29T15:39:21.737Z,32.16
2022-07-29T15:41:48.837Z,32.33
2022-07-29T15:44:19.583Z,32.23
2022-07-29T15:47:07.003Z,31.42
2022-07-29T15:49:47.788Z,30.06
2022-07-29T15:52:18.450Z,30.95
2022-07-29T15:54:46.135Z,31.00
2022-07-29T15:57:13.548Z,30.69
2022-07-29T15:59:40.229Z,31.55
2022-07-29T16:02:07.231Z,31.96
2022-07-29T16:04:33.935Z,31.89
2022-07-29T16:07:01.145Z,31.76
2022-07-29T16:09:28.914Z,30.50
2022-07-29T16:11:56.638Z,29.24
2022-07-29T16:14:23.652Z,28.96
2022-07-29T16:16:55.702Z,27.90
2022-07-29T16:19:25.514Z,27.96
2022-07-29T16:21:52.947Z,27.01
2022-07-29T16:24:21.548Z,27.71
2022-07-29T16:26:48.145Z,28.45
2022-07-29T16:29:15.023Z,29.18
2022-07-29T16:31:44.654Z,30.16
2022-07-29T16:34:11.845Z,30.93
2022-07-29T16:36:38.375Z,31.83
2022-07-29T16:39:05.724Z,32.55
2022-07-29T16:41:32.283Z,32.24
2022-07-29T16:43:59.246Z,32.57
2022-07-29T16:46:25.962Z,32.66
2022-07-29T16:48:52.965Z,32.35
2022-07-29T16:51:19.688Z,32.25
2022-07-29T16:53:46.377Z,32.07
2022-07-29T16:56:17.247Z,31.87
2022-07-29T16:58:44.211Z,30.89
2022-07-29T17:01:11.785Z,31.41
2022-07-29T17:04:00.491Z,31.66
2022-07-29T17:06:29.426Z,31.87
2022-07-29T17:08:56.965Z,31.98
2022-07-29T17:11:52.476Z,32.32
2022-07-29T17:14:11.278Z,33.06
2022-07-29T17:16:37.898Z,34.20
2022-07-29T17:19:04.726Z,35.44
2022-07-29T17:21:31.568Z,34.02
2022-07-29T17:23:59.450Z,34.21
2022-07-29T17:26:28.075Z,34.39
2022-07-29T17:28:55.731Z,34.31
2022-07-29T17:31:23.504Z,34.62
2022-07-29T17:33:50.512Z,35.61
2022-07-29T17:36:26.993Z,35.47
2022-07-29T17:38:56.358Z,35.49
2022-07-29T17:41:24.542Z,35.76
2022-07-29T17:43:51.509Z,36.03
2022-07-29T17:46:19.797Z,36.18
2022-07-29T17:48:46.566Z,36.84
2022-07-29T17:51:13.364Z,37.33
2022-07-29T17:53:40.369Z,37.03
2022-07-29T17:56:07.166Z,37.11
2022-07-29T17:58:34.869Z,37.11
2022-07-29T18:01:01.729Z,37.18
2022-07-29T18:03:28.537Z,37.44
2022-07-29T18:05:55.203Z,37.52
2022-07-29T18:08:23.354Z,37.90
2022-07-29T18:10:50.993Z,37.50
2022-07-29T18:13:18.150Z,37.13
2022-07-29T18:15:46.411Z,37.91
2022-07-29T18:18:14.493Z,37.97
2022-07-29T18:20:43.004Z,37.95
2022-07-29T18:23:09.809Z,37.76
2022-07-29T18:25:37.020Z,37.98
2022-07-29T18:28:04.595Z,37.96
2022-07-29T18:30:33.451Z,38.08
2022-07-29T18:33:20.147Z,38.32
2022-07-29T18:35:49.375Z,38.57
2022-07-29T18:38:16.051Z,38.97
2022-07-29T18:40:43.414Z,38.99
2022-07-29T18:43:10.814Z,39.07
2022-07-29T18:45:38.180Z,38.95
2022-07-29T18:48:12.891Z,39.75
2022-07-29T18:50:41.215Z,40.43
2022-07-29T18:53:08.212Z,40.44
2022-07-29T18:55:35.368Z,40.36
2022-07-29T18:58:02.130Z,40.46
2022-07-29T19:00:30.595Z,40.65
2022-07-29T19:02:57.374Z,40.98
2022-07-29T19:05:25.556Z,40.43
2022-07-29T19:07:52.258Z,40.41
2022-07-29T19:10:18.834Z,40.43
2022-07-29T19:12:45.540Z,41.00
2022-07-29T19:15:12.175Z,41.93
2022-07-29T19:17:47.072Z,41.99
2022-07-29T19:20:14.357Z,42.86
2022-07-29T19:22:41.024Z,42.56
2022-07-29T19:25:08.165Z,42.97
2022-07-29T19:27:34.735Z,43.52
2022-07-29T19:30:03.365Z,44.09
2022-07-29T19:32:29.986Z,43.81
2022-07-29T19:35:15.201Z,43.99
2022-07-29T19:37:41.735Z,44.20
2022-07-29T19:40:10.001Z,44.42
2022-07-29T19:42:36.596Z,44.33
2022-07-29T19:45:03.970Z,44.71
2022-07-29T19:47:30.602Z,44.66
2022-07-29T19:49:57.153Z,44.97
2022-07-29T19:52:24.021Z,45.28
2022-07-29T19:54:50.698Z,45.44
2022-07-29T19:57:17.258Z,45.80
2022-07-29T19:59:51.182Z,46.16
2022-07-29T20:02:17.851Z,46.76
2022-07-29T20:04:44.571Z,46.70
2022-07-29T20:07:14.272Z,46.50
2022-07-29T20:09:41.730Z,46.81
2022-07-29T20:12:09.459Z,47.31
2022-07-29T20:14:36.210Z,47.47
2022-07-29T20:17:03.112Z,47.83
2022-07-29T20:19:29.993Z,47.63
2022-07-29T20:21:56.857Z,47.25
2022-07-29T20:24:23.806Z,47.50
2022-07-29T20:26:50.552Z,47.32
2022-07-29T20:29:17.461Z,47.22
2022-07-29T20:31:45.626Z,47.63
2022-07-29T20:34:20.284Z,48.25
2022-07-29T20:36:48.775Z,48.28
2022-07-29T20:39:15.412Z,48.52
2022-07-29T20:41:41.994Z,48.72
2022-07-29T20:44:08.689Z,49.12
2022-07-29T20:46:35.345Z,49.31
2022-07-29T20:49:02.023Z,49.64
2022-07-29T20:51:28.722Z,49.67
2022-07-29T20:53:55.540Z,49.45
2022-07-29T20:56:22.404Z,49.94
2022-07-29T20:58:49.512Z,49.93
2022-07-29T21:01:16.509Z,49.48
2022-07-29T21:03:43.272Z,49.44
2022-07-29T21:06:11.484Z,50.02
2022-07-29T21:08:39.065Z,49.74
2022-07-29T21:11:05.724Z,50.09
2022-07-29T21:13:38.275Z,49.71
2022-07-29T21:16:14.897Z,50.17
2022-07-29T21:18:44.071Z,50.69
2022-07-29T21:21:10.874Z,50.53
2022-07-29T21:23:37.729Z,50.86
2022-07-29T21:26:06.940Z,50.75
2022-07-29T21:28:38.547Z,51.06
2022-07-29T21:31:07.546Z,50.83
2022-07-29T21:33:35.358Z,50.65
2022-07-29T21:38:50.299Z,51.02
2022-07-29T21:41:16.918Z,52.09
2022-07-29T21:43:43.651Z,52.05
2022-07-29T21:46:10.434Z,52.15
2022-07-29T21:48:41.155Z,51.94
2022-07-29T21:51:10.673Z,51.74
2022-07-29T21:53:37.381Z,51.63
2022-07-29T21:56:04.176Z,51.72
2022-07-29T21:58:32.686Z,51.71
2022-07-29T22:01:00.352Z,51.77
2022-07-29T22:03:27.143Z,51.97
2022-07-29T22:05:54.370Z,51.87
2022-07-29T22:08:21.009Z,51.84
2022-07-29T22:10:47.695Z,51.31
2022-07-29T22:13:15.435Z,51.79
2022-07-29T22:15:46.947Z,52.57
2022-07-29T22:18:14.045Z,53.38
2022-07-29T22:20:48.723Z,53.78
2022-07-29T22:23:17.488Z,54.30
2022-07-29T22:25:44.159Z,54.72
2022-07-29T22:28:11.337Z,54.56
2022-07-29T22:30:38.083Z,54.38
2022-07-29T22:33:04.786Z,54.47
2022-07-29T22:35:31.428Z,54.51
2022-07-29T22:37:58.079Z,54.61
2022-07-29T22:40:30.507Z,54.46
2022-07-29T22:42:57.597Z,54.64
2022-07-29T22:45:24.397Z,54.31
2022-07-29T22:47:55.956Z,54.46
2022-07-29T22:50:26.501Z,54.50
2022-07-29T22:52:53.100Z,54.24
2022-07-29T22:55:19.785Z,54.55
2022-07-29T22:57:46.379Z,54.65
2022-07-29T23:00:13.584Z,54.58
2022-07-29T23:02:41.441Z,54.79
2022-07-29T23:05:11.647Z,54.74
2022-07-29T23:07:38.340Z,54.59
2022-07-29T23:10:05.516Z,54.65
2022-07-29T23:12:32.235Z,54.94
2022-07-29T23:14:58.887Z,55.02
2022-07-29T23:17:25.758Z,55.22
2022-07-29T23:19:52.356Z,54.79
2022-07-29T23:22:18.934Z,54.91
2022-07-29T23:24:45.688Z,55.29
2022-07-29T23:27:12.349Z,55.51
2022-07-29T23:29:39.086Z,55.70
2022-07-29T23:32:06.029Z,55.26
2022-07-29T23:34:32.771Z,55.19
2022-07-29T23:36:59.734Z,55.49
2022-07-29T23:39:26.548Z,55.55
2022-07-29T23:41:53.368Z,55.80
2022-07-29T23:44:20.066Z,55.65
2022-07-29T23:46:46.718Z,55.50
2022-07-29T23:49:14.114Z,55.81
2022-07-29T23:51:40.813Z,55.77
2022-07-29T23:54:07.494Z,56.00
2022-07-29T23:56:34.185Z,56.33
2022-07-29T23:59:00.964Z,57.13
